Time;durP1;ratioP1;P1;durP2;ratioP2;P2;SDS_P1;SDS_P2;PMS_P1;PMS_P2;Temp;Humidity;BMP_temperature;BMP_pressure;BME280_temperature;BME280_humidity;BME280_pressure;Samples;Min_cycle;Max_cycle;Signal;HPM_P1;HPM_P2
2022/07/26 00:00:11;;;;;;;11.97;9.13;;;;;;;-146.72;100.00;64895.28;5076096;28;20497;-74
2022/07/26 00:02:39;;;;;;;8.23;7.53;;;;;;;-146.72;100.00;64895.28;5079038;28;20864;-74
2022/07/26 00:05:15;;;;;;;8.93;7.50;;;;;;;-146.72;100.00;64895.28;5082896;28;20908;-73
2022/07/26 00:07:42;;;;;;;8.40;7.60;;;;;;;-146.72;100.00;64895.28;5070534;28;20494;-72
2022/07/26 00:10:10;;;;;;;8.13;7.33;;;;;;;-146.72;100.00;64895.28;5078907;28;20747;-73
2022/07/26 00:12:38;;;;;;;9.33;7.73;;;;;;;-146.72;100.00;64895.28;5080507;28;20895;-73
2022/07/26 00:15:08;;;;;;;7.90;7.30;;;;;;;-146.72;100.00;64895.28;5070836;28;20499;-73
2022/07/26 00:17:35;;;;;;;8.80;7.83;;;;;;;-146.72;100.00;64895.28;5085375;28;20428;-73
2022/07/26 00:20:02;;;;;;;8.57;7.77;;;;;;;-146.72;100.00;64895.28;5070157;28;21033;-73
2022/07/26 00:22:37;;;;;;;8.73;7.93;;;;;;;-146.72;100.00;64895.28;5077511;28;20514;-73
2022/07/26 00:25:07;;;;;;;10.00;8.17;;;;;;;-146.72;100.00;64895.28;5054176;28;20482;-73
2022/07/26 00:27:37;;;;;;;8.47;7.73;;;;;;;-146.72;100.00;64895.28;5073923;28;20494;-73
2022/07/26 00:30:06;;;;;;;8.67;7.97;;;;;;;-146.72;100.00;64895.28;5055768;28;20509;-73
2022/07/26 00:32:33;;;;;;;8.87;7.97;;;;;;;-146.72;100.00;64895.28;5075995;28;20440;-72
2022/07/26 00:34:59;;;;;;;11.50;8.27;;;;;;;-146.72;100.00;64895.28;5093337;28;20485;-73
2022/07/26 00:37:26;;;;;;;8.27;7.47;;;;;;;-146.72;100.00;64895.28;5085134;28;20478;-73
2022/07/26 00:39:53;;;;;;;9.00;8.20;;;;;;;-146.72;100.00;64895.28;5079592;28;20518;-73
2022/07/26 00:42:19;;;;;;;9.20;7.80;;;;;;;-146.72;100.00;64895.28;5078310;28;20467;-73
2022/07/26 00:44:46;;;;;;;8.43;7.10;;;;;;;-146.72;100.00;64895.28;5080813;28;20433;-73
2022/07/26 00:47:14;;;;;;;7.63;6.93;;;;;;;-146.72;100.00;64895.28;5053346;28;20483;-72
2022/07/26 00:49:41;;;;;;;7.23;6.60;;;;;;;-146.72;100.00;64895.28;5081679;28;20461;-72
2022/07/26 00:52:09;;;;;;;7.50;6.90;;;;;;;-146.72;100.00;64895.28;5055632;28;20440;-73
2022/07/26 00:54:38;;;;;;;8.03;7.33;;;;;;;-146.72;100.00;64895.28;5085250;28;20488;-73
2022/07/26 00:57:05;;;;;;;8.30;7.50;;;;;;;-146.72;100.00;64895.28;5080586;28;20472;-73
2022/07/26 00:59:32;;;;;;;7.30;6.80;;;;;;;-146.72;100.00;64895.28;5065871;28;20485;-73
2022/07/26 01:01:59;;;;;;;7.90;7.10;;;;;;;-146.72;100.00;64895.28;5060846;28;20528;-73
2022/07/26 01:04:27;;;;;;;7.70;7.10;;;;;;;-146.72;100.00;64895.28;5071275;28;20778;-73
2022/07/26 01:06:54;;;;;;;8.33;7.60;;;;;;;-146.72;100.00;64895.28;5082151;28;20433;-73
2022/07/26 01:09:21;;;;;;;8.50;6.90;;;;;;;-146.72;100.00;64895.28;5089163;28;20896;-73
2022/07/26 01:11:48;;;;;;;7.40;6.80;;;;;;;-146.72;100.00;64895.28;5071416;28;20539;-73
2022/07/26 01:14:18;;;;;;;6.80;6.30;;;;;;;-146.72;100.00;64895.28;5059101;28;20560;-75
2022/07/26 01:16:45;;;;;;;7.87;6.70;;;;;;;-146.72;100.00;64895.28;5070050;28;21015;-73
2022/07/26 01:19:11;;;;;;;8.60;7.57;;;;;;;-146.72;100.00;64895.28;5072880;28;20452;-73
2022/07/26 01:21:38;;;;;;;10.60;6.63;;;;;;;-146.72;100.00;64895.28;5057870;28;20432;-73
2022/07/26 01:24:05;;;;;;;8.83;7.03;;;;;;;-146.72;100.00;64895.28;5082982;28;20931;-73
2022/07/26 01:26:32;;;;;;;7.23;6.63;;;;;;;-146.72;100.00;64895.28;5072949;28;20444;-73
2022/07/26 01:28:59;;;;;;;9.80;7.93;;;;;;;-146.72;100.00;64895.28;5070705;28;20495;-73
2022/07/26 01:31:26;;;;;;;9.03;7.80;;;;;;;-146.72;100.00;64895.28;5059791;28;20505;-73
2022/07/26 01:33:53;;;;;;;7.10;6.50;;;;;;;-146.72;100.00;64895.28;5068893;28;20494;-73
2022/07/26 01:36:19;;;;;;;7.97;7.27;;;;;;;-146.72;100.00;64895.28;5076322;28;21191;-73
2022/07/26 01:38:46;;;;;;;7.07;6.43;;;;;;;-146.72;100.00;64895.28;5057965;28;20462;-73
2022/07/26 01:41:13;;;;;;;7.63;6.87;;;;;;;-146.72;100.00;64895.28;5068486;28;20498;-73
2022/07/26 01:43:40;;;;;;;6.80;6.30;;;;;;;-146.72;100.00;64895.28;5081805;28;20932;-73
2022/07/26 01:46:08;;;;;;;7.43;6.73;;;;;;;-146.72;100.00;64895.28;5055819;28;20486;-73
2022/07/26 01:48:35;;;;;;;7.20;6.50;;;;;;;-146.72;100.00;64895.28;5076784;28;20898;-73
2022/07/26 01:51:02;;;;;;;7.57;6.87;;;;;;;-146.72;100.00;64895.28;5075586;28;20444;-73
2022/07/26 01:53:29;;;;;;;7.80;7.10;;;;;;;-146.72;100.00;64895.28;5081815;28;20506;-73
2022/07/26 01:55:56;;;;;;;8.27;7.40;;;;;;;-146.72;100.00;64895.28;5076221;28;20452;-73
2022/07/26 01:58:22;;;;;;;7.00;6.50;;;;;;;-146.72;100.00;64895.28;5063051;28;20531;-73
2022/07/26 02:00:49;;;;;;;7.87;6.40;;;;;;;-146.72;100.00;64895.28;5074706;28;20432;-73
2022/07/26 02:03:16;;;;;;;8.33;7.53;;;;;;;-146.72;100.00;64895.28;5072146;28;20435;-73
2022/07/26 02:05:43;;;;;;;7.83;7.13;;;;;;;-146.72;100.00;64895.28;5082594;28;20454;-73
2022/07/26 02:08:10;;;;;;;7.50;6.80;;;;;;;-146.72;100.00;64895.28;5077222;28;20433;-73
2022/07/26 02:13:24;;;;;;;7.60;6.90;;;;;;;-146.72;100.00;64895.28;5089285;28;20450;-73
2022/07/26 02:15:51;;;;;;;6.77;6.20;;;;;;;-146.72;100.00;64895.28;5054568;28;20476;-73
2022/07/26 02:18:17;;;;;;;7.27;6.67;;;;;;;-146.72;100.00;64895.28;5060852;28;20462;-73
2022/07/26 02:20:44;;;;;;;7.23;6.63;;;;;;;-146.72;100.00;64895.28;5070962;28;20490;-73
2022/07/26 02:23:11;;;;;;;7.17;6.50;;;;;;;-146.72;100.00;64895.28;5075912;28;20531;-73
2022/07/26 02:25:38;;;;;;;6.47;5.87;;;;;;;-146.72;100.00;64895.28;5075222;28;20460;-73
2022/07/26 02:28:05;;;;;;;6.13;5.63;;;;;;;-146.72;100.00;64895.28;5052133;28;20473;-73
2022/07/26 02:30:31;;;;;;;7.83;7.20;;;;;;;-146.72;100.00;64895.28;5074072;28;20476;-73
2022/07/26 02:32:59;;;;;;;6.80;5.87;;;;;;;-146.72;100.00;64895.28;5073716;28;20428;-73
2022/07/26 02:35:26;;;;;;;7.40;6.70;;;;;;;-146.72;100.00;64895.28;5054887;28;20548;-73
2022/07/26 02:37:52;;;;;;;6.50;5.90;;;;;;;-146.72;100.00;64895.28;5056218;28;20434;-73
2022/07/26 02:40:19;;;;;;;5.47;4.90;;;;;;;-146.72;100.00;64895.28;5077182;28;20484;-73
2022/07/26 02:42:46;;;;;;;5.83;5.33;;;;;;;-146.72;100.00;64895.28;5077180;28;20436;-73
2022/07/26 02:45:12;;;;;;;6.27;5.50;;;;;;;-146.72;100.00;64895.28;5073685;28;20489;-73
2022/07/26 02:47:52;;;;;;;8.03;5.30;;;;;;;-146.72;100.00;64895.28;5070687;28;20483;-73
2022/07/26 02:50:23;;;;;;;10.67;5.83;;;;;;;-146.72;100.00;64895.28;5065028;28;20483;-73
2022/07/26 02:52:51;;;;;;;9.03;4.47;;;;;;;-146.72;100.00;64895.28;5082826;28;20528;-73
2022/07/26 02:55:20;;;;;;;6.40;5.80;;;;;;;-146.72;100.00;64895.28;5073516;28;20537;-73
2022/07/26 02:57:47;;;;;;;8.40;5.40;;;;;;;-146.72;100.00;64895.28;5058237;28;20569;-73
2022/07/26 03:00:16;;;;;;;7.57;6.00;;;;;;;-146.72;100.00;64895.28;5057535;28;20461;-73
2022/07/26 03:02:43;;;;;;;6.27;4.87;;;;;;;-146.72;100.00;64895.28;5050002;28;20476;-73
2022/07/26 03:05:10;;;;;;;7.90;5.57;;;;;;;-146.72;100.00;64895.28;5076223;28;20864;-73
2022/07/26 03:07:36;;;;;;;5.40;4.73;;;;;;;-146.72;100.00;64895.28;5070085;28;20855;-73
2022/07/26 03:10:04;;;;;;;7.50;4.40;;;;;;;-146.72;100.00;64895.28;5070466;28;21078;-73
2022/07/26 03:12:30;;;;;;;5.20;4.10;;;;;;;-146.72;100.00;64895.28;5073549;28;20528;-73
2022/07/26 03:14:57;;;;;;;5.07;4.67;;;;;;;-146.72;100.00;64895.28;5053125;28;20612;-72
2022/07/26 03:17:24;;;;;;;5.60;4.77;;;;;;;-146.72;100.00;64895.28;5069921;28;20452;-73
2022/07/26 03:19:51;;;;;;;7.70;4.83;;;;;;;-146.72;100.00;64895.28;5069816;28;20559;-72
2022/07/26 03:22:18;;;;;;;4.60;4.20;;;;;;;-146.72;100.00;64895.28;5069815;28;20869;-73
2022/07/26 03:24:44;;;;;;;5.43;4.93;;;;;;;-146.72;100.00;64895.28;5069962;28;20456;-73
2022/07/26 03:27:11;;;;;;;6.70;4.80;;;;;;;-146.72;100.00;64895.28;5077913;28;20864;-73
2022/07/26 03:29:38;;;;;;;11.43;5.23;;;;;;;-146.72;100.00;64895.28;5067844;28;20505;-73
2022/07/26 03:32:05;;;;;;;9.70;4.70;;;;;;;-146.72;100.00;64895.28;5060840;28;20527;-73
2022/07/26 03:34:32;;;;;;;7.00;5.50;;;;;;;-146.72;100.00;64895.28;5069887;28;20816;-73
2022/07/26 03:36:58;;;;;;;4.80;4.30;;;;;;;-146.72;100.00;64895.28;5069983;28;20428;-72
2022/07/26 03:39:25;;;;;;;7.60;4.97;;;;;;;-146.72;100.00;64895.28;5084958;28;20486;-73
2022/07/26 03:41:51;;;;;;;10.43;6.40;;;;;;;-146.72;100.00;64895.28;5091647;28;20424;-72
2022/07/26 03:44:18;;;;;;;5.97;4.23;;;;;;;-146.72;100.00;64895.28;5091274;28;20458;-73
2022/07/26 03:46:45;;;;;;;5.17;4.67;;;;;;;-146.72;100.00;64895.28;5089411;28;20496;-73
2022/07/26 03:49:12;;;;;;;5.33;4.50;;;;;;;-146.72;100.00;64895.28;5089560;28;20542;-73
2022/07/26 03:51:43;;;;;;;9.60;5.20;;;;;;;-146.72;100.00;64895.28;5089527;28;20470;-72
2022/07/26 03:54:09;;;;;;;9.80;5.67;;;;;;;-146.72;100.00;64895.28;5071443;28;20435;-73
2022/07/26 03:56:38;;;;;;;7.90;5.00;;;;;;;-146.72;100.00;64895.28;5086392;28;20545;-72
2022/07/26 03:59:07;;;;;;;6.63;4.87;;;;;;;-146.72;100.00;64895.28;5052953;28;20491;-72
2022/07/26 04:01:40;;;;;;;4.60;4.23;;;;;;;-146.72;100.00;64895.28;5069716;28;20444;-73
2022/07/26 04:04:08;;;;;;;6.40;4.50;;;;;;;-146.72;100.00;64895.28;5080976;28;20416;-73
2022/07/26 04:06:37;;;;;;;7.40;4.77;;;;;;;-146.72;100.00;64895.28;5077938;28;20471;-73
2022/07/26 04:09:05;;;;;;;4.77;4.40;;;;;;;-146.72;100.00;64895.28;5096240;28;20485;-72
2022/07/26 04:11:34;;;;;;;5.70;4.80;;;;;;;-146.72;100.00;64895.28;5095392;28;20431;-72
2022/07/26 04:14:01;;;;;;;7.20;5.00;;;;;;;-146.72;100.00;64895.28;5095628;28;20439;-72
2022/07/26 04:16:27;;;;;;;8.87;4.70;;;;;;;-146.72;100.00;64895.28;5076773;28;20493;-72
2022/07/26 04:18:54;;;;;;;5.57;4.80;;;;;;;-146.72;100.00;64895.28;5077807;28;20457;-73
2022/07/26 04:21:21;;;;;;;8.60;5.07;;;;;;;-146.72;100.00;64895.28;5063294;28;20507;-73
2022/07/26 04:24:03;;;;;;;5.07;4.57;;;;;;;-146.72;100.00;64895.28;5047937;28;20454;-72
2022/07/26 04:26:31;;;;;;;4.43;4.00;;;;;;;-146.72;100.00;64895.28;5081027;28;20440;-73
2022/07/26 04:28:58;;;;;;;5.83;4.50;;;;;;;-146.72;100.00;64895.28;5072646;28;20501;-73
2022/07/26 04:31:24;;;;;;;4.93;4.37;;;;;;;-146.72;100.00;64895.28;5072585;28;20483;-73
2022/07/26 04:33:51;;;;;;;4.97;4.53;;;;;;;-146.72;100.00;64895.28;5087148;28;20432;-73
2022/07/26 04:36:18;;;;;;;5.60;4.50;;;;;;;-146.72;100.00;64895.28;5086216;28;20550;-73
2022/07/26 04:38:45;;;;;;;5.43;4.10;;;;;;;-146.72;100.00;64895.28;5093393;28;20490;-73
2022/07/26 04:41:12;;;;;;;9.07;4.20;;;;;;;-146.72;100.00;64895.28;5092943;28;20474;-73
2022/07/26 04:43:38;;;;;;;4.30;3.70;;;;;;;-146.72;100.00;64895.28;5076223;28;20459;-73
2022/07/26 04:46:05;;;;;;;7.60;4.63;;;;;;;-146.72;100.00;64895.28;5093193;28;20464;-73
2022/07/26 04:48:32;;;;;;;4.83;4.13;;;;;;;-146.72;100.00;64895.28;5093018;28;20826;-73
2022/07/26 04:51:00;;;;;;;4.50;4.10;;;;;;;-146.72;100.00;64895.28;5076169;28;20530;-73
2022/07/26 04:53:27;;;;;;;5.43;4.93;;;;;;;-146.72;100.00;64895.28;5075499;28;20485;-73
2022/07/26 04:55:53;;;;;;;4.67;4.13;;;;;;;-146.72;100.00;64895.28;5092048;28;20463;-73
2022/07/26 04:58:20;;;;;;;5.33;3.93;;;;;;;-146.72;100.00;64895.28;5061998;28;20433;-72
2022/07/26 05:00:47;;;;;;;5.00;4.13;;;;;;;-146.72;100.00;64895.28;5055372;28;20463;-73
2022/07/26 05:03:33;;;;;;;6.73;4.50;;;;;;;-146.72;100.00;64895.28;5073848;28;20458;-72
2022/07/26 05:06:00;;;;;;;5.10;4.50;;;;;;;-146.72;100.00;64895.28;5088659;28;20433;-72
2022/07/26 05:08:27;;;;;;;6.67;4.23;;;;;;;-146.72;100.00;64895.28;5072334;28;20429;-72
2022/07/26 05:10:53;;;;;;;5.83;4.10;;;;;;;-146.72;100.00;64895.28;5071625;28;20879;-72
2022/07/26 05:13:21;;;;;;;6.00;4.70;;;;;;;-146.72;100.00;64895.28;5077862;28;20954;-72
2022/07/26 05:15:58;;;;;;;5.17;4.67;;;;;;;-146.72;100.00;64895.28;5090462;28;20546;-72
2022/07/26 05:18:25;;;;;;;5.33;4.30;;;;;;;-146.72;100.00;64895.28;5074842;28;20435;-72
2022/07/26 05:20:52;;;;;;;6.50;4.37;;;;;;;-146.72;100.00;64895.28;5092903;28;20431;-72
2022/07/26 05:23:19;;;;;;;5.40;4.50;;;;;;;-146.72;100.00;64895.28;5059453;28;20479;-74
2022/07/26 05:25:46;;;;;;;7.27;5.07;;;;;;;-146.72;100.00;64895.28;5068227;28;20444;-75
2022/07/26 05:28:13;;;;;;;10.43;4.60;;;;;;;-146.72;100.00;64895.28;5084268;28;20523;-75
2022/07/26 05:30:40;;;;;;;4.83;4.23;;;;;;;-146.72;100.00;64895.28;5073229;28;20429;-74
2022/07/26 05:33:06;;;;;;;9.80;4.40;;;;;;;-146.72;100.00;64895.28;5084095;28;20470;-74
2022/07/26 05:35:33;;;;;;;6.90;4.60;;;;;;;-146.72;100.00;64895.28;5071233;28;20503;-75
2022/07/26 05:38:00;;;;;;;5.10;4.60;;;;;;;-146.72;100.00;64895.28;5062385;28;20914;-74
2022/07/26 05:40:27;;;;;;;6.17;4.13;;;;;;;-146.72;100.00;64895.28;5090597;28;20455;-75
2022/07/26 05:42:53;;;;;;;4.47;4.07;;;;;;;-146.72;100.00;64895.28;5070843;28;20523;-75
2022/07/26 05:45:20;;;;;;;5.13;4.47;;;;;;;-146.72;100.00;64895.28;5068650;28;20478;-75
2022/07/26 05:47:51;;;;;;;6.50;4.40;;;;;;;-146.72;100.00;64895.28;5083233;28;20436;-75
2022/07/26 05:50:18;;;;;;;4.80;4.20;;;;;;;-146.72;100.00;64895.28;5073894;28;20445;-74
2022/07/26 05:52:45;;;;;;;4.90;3.83;;;;;;;-146.72;100.00;64895.28;5070760;28;21016;-74
2022/07/26 05:55:12;;;;;;;6.93;4.20;;;;;;;-146.72;100.00;64895.28;5069479;28;20558;-75
2022/07/26 05:57:40;;;;;;;8.97;4.60;;;;;;;-146.72;100.00;64895.28;5082016;28;20607;-75
2022/07/26 06:00:10;;;;;;;5.87;3.80;;;;;;;-146.72;100.00;64895.28;5085352;28;20871;-75
2022/07/26 06:02:37;;;;;;;6.97;4.10;;;;;;;-146.72;100.00;64895.28;5092619;28;20427;-75
2022/07/26 06:05:04;;;;;;;8.00;4.47;;;;;;;-146.72;100.00;64895.28;5076627;28;20467;-75
2022/07/26 06:07:31;;;;;;;5.90;3.93;;;;;;;-146.72;100.00;64895.28;5077986;28;20935;-75
2022/07/26 06:09:58;;;;;;;11.10;4.83;;;;;;;-146.72;100.00;64895.28;5090568;28;20545;-75
2022/07/26 06:12:25;;;;;;;6.63;3.67;;;;;;;-146.72;100.00;64895.28;5090791;28;21201;-75
2022/07/26 06:14:51;;;;;;;6.93;4.17;;;;;;;-146.72;100.00;64895.28;5072877;28;20448;-75
2022/07/26 06:17:18;;;;;;;8.40;4.20;;;;;;;-146.72;100.00;64895.28;5070416;28;20502;-75
2022/07/26 06:19:45;;;;;;;8.43;3.90;;;;;;;-146.72;100.00;64895.28;5071776;28;21155;-75
2022/07/26 06:22:13;;;;;;;5.00;3.80;;;;;;;-146.72;100.00;64895.28;5053958;28;20440;-75
2022/07/26 06:24:40;;;;;;;9.17;4.37;;;;;;;-146.72;100.00;64895.28;5070152;28;20440;-75
2022/07/26 06:27:07;;;;;;;9.97;4.20;;;;;;;-146.72;100.00;64895.28;5080078;28;20510;-75
2022/07/26 06:29:34;;;;;;;6.17;3.93;;;;;;;-146.72;100.00;64895.28;5058019;28;20464;-75
2022/07/26 06:32:00;;;;;;;7.17;4.20;;;;;;;-146.72;100.00;64895.28;5071563;28;20792;-75
2022/07/26 06:34:27;;;;;;;8.40;3.70;;;;;;;-146.72;100.00;64895.28;5053739;28;20440;-75
2022/07/26 06:36:54;;;;;;;12.43;3.70;;;;;;;-146.72;100.00;64895.28;5069881;28;20547;-75
2022/07/26 06:39:21;;;;;;;10.30;3.80;;;;;;;-146.72;100.00;64895.28;5069854;28;20464;-75
2022/07/26 06:41:47;;;;;;;7.90;3.30;;;;;;;-146.72;100.00;64895.28;5070278;28;20452;-74
2022/07/26 06:44:21;;;;;;;8.20;2.97;;;;;;;-146.72;100.00;64895.28;5087076;28;20556;-75
2022/07/26 06:46:48;;;;;;;5.17;3.43;;;;;;;-146.72;100.00;64895.28;5091672;28;20419;-75
2022/07/26 06:49:15;;;;;;;5.23;2.90;;;;;;;-146.72;100.00;64895.28;5090638;28;20558;-75
2022/07/26 06:51:47;;;;;;;5.17;2.60;;;;;;;-146.72;100.00;64895.28;5063601;28;20474;-75
2022/07/26 06:54:14;;;;;;;5.53;3.30;;;;;;;-146.72;100.00;64895.28;5074966;28;20485;-75
2022/07/26 06:56:41;;;;;;;6.33;2.80;;;;;;;-146.72;100.00;64895.28;5073510;28;20463;-75
2022/07/26 06:59:07;;;;;;;4.90;3.10;;;;;;;-146.72;100.00;64895.28;5055848;28;20464;-75
2022/07/26 07:01:35;;;;;;;3.97;2.77;;;;;;;-146.72;100.00;64895.28;5071554;28;21254;-75
2022/07/26 07:04:21;;;;;;;14.43;2.93;;;;;;;-146.72;100.00;64895.28;5080110;28;20431;-74
2022/07/26 07:06:48;;;;;;;3.40;2.70;;;;;;;-146.72;100.00;64895.28;5087340;28;20471;-74
2022/07/26 07:09:16;;;;;;;4.87;3.13;;;;;;;-146.72;100.00;64895.28;5073773;28;20968;-74
2022/07/26 07:11:43;;;;;;;3.50;3.10;;;;;;;-146.72;100.00;64895.28;5073589;28;20943;-74
2022/07/26 07:14:10;;;;;;;5.27;3.10;;;;;;;-146.72;100.00;64895.28;5062880;28;20433;-74
2022/07/26 07:16:37;;;;;;;5.50;2.63;;;;;;;-146.72;100.00;64895.28;5084666;28;20461;-74
2022/07/26 07:19:04;;;;;;;4.10;2.87;;;;;;;-146.72;100.00;64895.28;5063680;28;21121;-74
2022/07/26 07:21:32;;;;;;;5.03;3.00;;;;;;;-146.72;100.00;64895.28;5053100;28;21013;-75
2022/07/26 07:23:59;;;;;;;3.03;2.50;;;;;;;-146.72;100.00;64895.28;5069666;28;20429;-74
2022/07/26 07:26:27;;;;;;;4.80;2.63;;;;;;;-146.72;100.00;64895.28;5063025;28;20953;-74
2022/07/26 07:28:54;;;;;;;2.60;2.33;;;;;;;-146.72;100.00;64895.28;5080487;28;20486;-76
2022/07/26 07:31:22;;;;;;;4.27;2.87;;;;;;;-146.72;100.00;64895.28;5076096;28;20510;-74
2022/07/26 07:33:56;;;;;;;5.43;2.57;;;;;;;-146.72;100.00;64895.28;5062564;28;21032;-75
2022/07/26 07:36:22;;;;;;;5.33;2.77;;;;;;;-146.72;100.00;64895.28;5070870;28;20543;-75
2022/07/26 07:38:49;;;;;;;3.90;3.00;;;;;;;-146.72;100.00;64895.28;5058051;28;20532;-75
2022/07/26 07:41:17;;;;;;;4.30;3.37;;;;;;;-146.72;100.00;64895.28;5077397;28;20436;-74
2022/07/26 07:43:44;;;;;;;5.03;2.87;;;;;;;-146.72;100.00;64895.28;5081950;28;20531;-74
2022/07/26 07:46:12;;;;;;;6.97;2.77;;;;;;;-146.72;100.00;64895.28;5075260;28;20429;-74
2022/07/26 07:48:42;;;;;;;4.77;2.30;;;;;;;-146.72;100.00;64895.28;5069682;28;20451;-75
2022/07/26 07:51:13;;;;;;;3.47;2.07;;;;;;;-146.72;100.00;64895.28;5093718;28;20439;-75
2022/07/26 07:53:39;;;;;;;3.50;2.50;;;;;;;-146.72;100.00;64895.28;5093415;28;20432;-75
2022/07/26 07:56:06;;;;;;;5.60;2.63;;;;;;;-146.72;100.00;64895.28;5080535;28;20463;-75
2022/07/26 07:58:33;;;;;;;4.63;2.80;;;;;;;-146.72;100.00;64895.28;5092851;28;20466;-75
2022/07/26 08:01:00;;;;;;;3.57;2.87;;;;;;;-146.72;100.00;64895.28;5075131;28;20442;-75
2022/07/26 08:03:27;;;;;;;2.93;2.10;;;;;;;-146.72;100.00;64895.28;5078412;28;20439;-74
2022/07/26 08:06:07;;;;;;;10.37;3.10;;;;;;;-146.72;100.00;64895.28;5066940;28;20435;-75
2022/07/26 08:08:35;;;;;;;5.33;2.90;;;;;;;-146.72;100.00;64895.28;5078414;28;20536;-75
2022/07/26 08:11:03;;;;;;;4.27;3.07;;;;;;;-146.72;100.00;64895.28;5072961;28;20977;-75
2022/07/26 08:13:33;;;;;;;2.83;2.60;;;;;;;-146.72;100.00;64895.28;5057196;28;20437;-74
2022/07/26 08:16:00;;;;;;;3.87;2.90;;;;;;;-146.72;100.00;64895.28;5062745;28;21062;-75
2022/07/26 08:18:26;;;;;;;3.77;3.00;;;;;;;-146.72;100.00;64895.28;5083493;28;20519;-75
2022/07/26 08:20:54;;;;;;;6.40;2.67;;;;;;;-146.72;100.00;64895.28;5072634;28;20441;-75
2022/07/26 08:23:21;;;;;;;2.53;2.23;;;;;;;-146.72;100.00;64895.28;5091403;28;20427;-74
2022/07/26 08:25:48;;;;;;;5.80;3.10;;;;;;;-146.72;100.00;64895.28;5082048;28;20440;-75
2022/07/26 08:28:24;;;;;;;4.60;3.33;;;;;;;-146.72;100.00;64895.28;5062337;28;20890;-75
2022/07/26 08:31:11;;;;;;;3.43;2.80;;;;;;;-146.72;100.00;64895.28;5079186;28;20887;-75
2022/07/26 08:33:37;;;;;;;2.73;2.60;;;;;;;-146.72;100.00;64895.28;5093593;28;20416;-75
2022/07/26 08:36:07;;;;;;;7.87;2.57;;;;;;;-146.72;100.00;64895.28;5087990;28;20871;-75
2022/07/26 08:38:34;;;;;;;6.80;2.70;;;;;;;-146.72;100.00;64895.28;5080570;28;20879;-74
2022/07/26 08:41:00;;;;;;;5.07;2.83;;;;;;;-146.72;100.00;64895.28;5080753;28;20445;-74
2022/07/26 08:43:28;;;;;;;2.90;2.23;;;;;;;-146.72;100.00;64895.28;5081297;28;20441;-75
2022/07/26 08:46:01;;;;;;;2.30;2.10;;;;;;;-146.72;100.00;64895.28;5091039;28;20946;-74
2022/07/26 08:48:28;;;;;;;4.97;2.97;;;;;;;-146.72;100.00;64895.28;5075938;28;20460;-74
2022/07/26 08:50:56;;;;;;;4.47;2.70;;;;;;;-146.72;100.00;64895.28;5075124;28;20474;-75
2022/07/26 08:53:22;;;;;;;9.43;2.73;;;;;;;-146.72;100.00;64895.28;5084358;28;20419;-75
2022/07/26 08:55:54;;;;;;;3.93;3.40;;;;;;;-146.72;100.00;64895.28;5092224;28;20432;-75
2022/07/26 08:58:35;;;;;;;2.70;2.40;;;;;;;-146.72;100.00;64895.28;5062614;28;20467;-75
2022/07/26 09:01:12;;;;;;;8.40;2.70;;;;;;;-146.72;100.00;64895.28;5042724;28;20433;-75
2022/07/26 09:03:43;;;;;;;3.30;2.10;;;;;;;-146.72;100.00;64895.28;5089291;28;20440;-75
2022/07/26 09:06:22;;;;;;;3.90;2.60;;;;;;;-146.72;100.00;64895.28;5066149;28;20983;-75
2022/07/26 09:09:09;;;;;;;5.10;3.57;;;;;;;-146.72;100.00;64895.28;5085987;28;20468;-75
2022/07/26 09:11:36;;;;;;;4.10;2.90;;;;;;;-146.72;100.00;64895.28;5058510;28;20445;-76
2022/07/26 09:14:04;;;;;;;6.07;3.77;;;;;;;-146.72;100.00;64895.28;5072027;28;20474;-76
2022/07/26 09:16:32;;;;;;;4.30;2.80;;;;;;;-146.72;100.00;64895.28;5074546;28;20531;-75
2022/07/26 09:19:21;;;;;;;2.93;2.40;;;;;;;-146.72;100.00;64895.28;5062333;28;20507;-75
2022/07/26 09:21:49;;;;;;;6.07;4.33;;;;;;;-146.72;100.00;64895.28;5083761;28;20440;-75
2022/07/26 09:24:34;;;;;;;6.57;4.07;;;;;;;-146.72;100.00;64895.28;5083198;28;20434;-75
2022/07/26 09:27:04;;;;;;;6.87;3.00;;;;;;;-146.72;100.00;64895.28;5075099;28;20432;-75
2022/07/26 09:29:49;;;;;;;4.13;3.10;;;;;;;-146.72;100.00;64895.28;5091474;28;20459;-75
2022/07/26 09:32:20;;;;;;;5.77;3.53;;;;;;;-146.72;100.00;64895.28;5075001;28;20431;-75
2022/07/26 09:34:52;;;;;;;5.27;2.73;;;;;;;-146.72;100.00;64895.28;5077839;28;20450;-75
2022/07/26 09:37:35;;;;;;;6.73;2.83;;;;;;;-146.72;100.00;64895.28;5092725;28;20544;-75
2022/07/26 09:40:07;;;;;;;5.13;2.97;;;;;;;-146.72;100.00;64895.28;5083781;28;20506;-75
2022/07/26 09:42:34;;;;;;;6.33;3.20;;;;;;;-146.72;100.00;64895.28;5070906;28;20441;-74
2022/07/26 09:45:13;;;;;;;3.70;2.53;;;;;;;-146.72;100.00;64895.28;5062980;28;20480;-75
2022/07/26 09:47:40;;;;;;;3.40;3.00;;;;;;;-146.72;100.00;64895.28;5068228;28;20476;-75
2022/07/26 09:50:18;;;;;;;4.63;2.80;;;;;;;-146.72;100.00;64895.28;5081662;28;20473;-75
2022/07/26 09:53:06;;;;;;;4.57;2.40;;;;;;;-146.72;100.00;64895.28;5073117;28;20848;-75
2022/07/26 09:55:54;;;;;;;2.83;2.30;;;;;;;-146.72;100.00;64895.28;5087674;28;20416;-75
2022/07/26 09:58:21;;;;;;;4.07;2.13;;;;;;;-146.72;100.00;64895.28;5078043;28;20506;-74
2022/07/26 10:00:49;;;;;;;4.60;2.73;;;;;;;-146.72;100.00;64895.28;5071161;28;20520;-74
2022/07/26 10:03:15;;;;;;;4.13;2.93;;;;;;;-146.72;100.00;64895.28;5091891;28;20436;-74
2022/07/26 10:05:42;;;;;;;3.80;2.57;;;;;;;-146.72;100.00;64895.28;5062139;28;20447;-74
2022/07/26 10:08:11;;;;;;;3.60;2.00;;;;;;;-146.72;100.00;64895.28;5096512;28;20459;-74
2022/07/26 10:10:55;;;;;;;4.33;1.90;;;;;;;-146.72;100.00;64895.28;5103432;28;20438;-73
2022/07/26 10:13:25;;;;;;;3.57;2.30;;;;;;;-146.72;100.00;64895.28;5086440;28;20428;-73
2022/07/26 10:15:53;;;;;;;5.03;2.53;;;;;;;-146.72;100.00;64895.28;5100581;28;20947;-74
2022/07/26 10:18:35;;;;;;;6.40;2.70;;;;;;;-146.72;100.00;64895.28;5088537;28;20802;-74
2022/07/26 10:21:20;;;;;;;8.50;3.57;;;;;;;-146.72;100.00;64895.28;5071204;28;20433;-74
2022/07/26 10:23:58;;;;;;;8.43;3.13;;;;;;;-146.72;100.00;64895.28;5071056;28;20427;-74
2022/07/26 10:26:31;;;;;;;4.13;3.23;;;;;;;-146.72;100.00;64895.28;5053697;28;20786;-74
2022/07/26 10:29:16;;;;;;;5.63;3.70;;;;;;;-146.72;100.00;64895.28;5071829;28;20867;-74
2022/07/26 10:31:43;;;;;;;4.37;3.07;;;;;;;-146.72;100.00;64895.28;5055190;28;20952;-74
2022/07/26 10:34:38;;;;;;;6.27;3.10;;;;;;;-146.72;100.00;64895.28;5073310;28;20949;-74
2022/07/26 10:37:08;;;;;;;6.70;2.83;;;;;;;-146.72;100.00;64895.28;5072001;28;20460;-74
2022/07/26 10:39:35;;;;;;;4.43;2.60;;;;;;;-146.72;100.00;64895.28;5073379;28;20971;-73
2022/07/26 10:42:05;;;;;;;4.47;3.10;;;;;;;-146.72;100.00;64895.28;5072744;28;20424;-73
2022/07/26 10:44:33;;;;;;;5.87;3.50;;;;;;;-146.72;100.00;64895.28;5071913;28;20986;-74
2022/07/26 10:47:06;;;;;;;5.20;3.20;;;;;;;-146.72;100.00;64895.28;5066523;28;20427;-74
2022/07/26 10:49:42;;;;;;;5.63;2.60;;;;;;;-146.72;100.00;64895.28;5090705;28;20540;-73
2022/07/26 10:52:13;;;;;;;3.07;2.63;;;;;;;-146.72;100.00;64895.28;5092027;28;20468;-74
2022/07/26 10:54:55;;;;;;;4.23;3.10;;;;;;;-146.72;100.00;64895.28;5090830;28;20477;-73
2022/07/26 10:57:23;;;;;;;4.40;2.50;;;;;;;-146.72;100.00;64895.28;5085487;28;20972;-73
2022/07/26 10:59:50;;;;;;;2.53;2.33;;;;;;;-146.72;100.00;64895.28;5070529;28;20502;-73
2022/07/26 11:02:31;;;;;;;5.97;3.20;;;;;;;-146.72;100.00;64895.28;5086751;28;20852;-73
2022/07/26 11:05:03;;;;;;;4.17;2.93;;;;;;;-146.72;100.00;64895.28;5075515;28;20444;-73
2022/07/26 11:07:30;;;;;;;4.07;3.20;;;;;;;-146.72;100.00;64895.28;5070649;28;20427;-74
2022/07/26 11:09:58;;;;;;;3.83;2.50;;;;;;;-146.72;100.00;64895.28;5071835;28;20474;-74
2022/07/26 11:12:26;;;;;;;4.73;2.63;;;;;;;-146.72;100.00;64895.28;5061286;28;20427;-74
2022/07/26 11:14:53;;;;;;;8.80;3.20;;;;;;;-146.72;100.00;64895.28;5093651;28;20761;-74
2022/07/26 11:17:26;;;;;;;9.67;1.90;;;;;;;-146.72;100.00;64895.28;5094698;28;20463;-74
2022/07/26 11:19:53;;;;;;;7.63;2.67;;;;;;;-146.72;100.00;64895.28;5060510;28;20507;-74